sensor_id;sensor_type;location;lat;lon;timestamp;temperature;humidity
17948;DHT22;9099;47.958;11.366;2022-12-05T00:00:00;3.80;99.90
17948;DHT22;9099;47.958;11.366;2022-12-05T00:02:28;3.80;99.90
17948;DHT22;9099;47.958;11.366;2022-12-05T00:04:55;3.80;99.90
17948;DHT22;9099;47.958;11.366;2022-12-05T00:07:21;3.80;99.90
17948;DHT22;9099;47.958;11.366;2022-12-05T00:09:48;3.80;99.90
17948;DHT22;9099;47.958;11.366;2022-12-05T00:12:15;3.90;99.90
17948;DHT22;9099;47.958;11.366;2022-12-05T00:14:42;3.90;99.90
17948;DHT22;9099;47.958;11.366;2022-12-05T00:17:09;3.70;99.90
17948;DHT22;9099;47.958;11.366;2022-12-05T00:19:38;3.70;99.90
17948;DHT22;9099;47.958;11.366;2022-12-05T00:22:05;3.80;99.90
17948;DHT22;9099;47.958;11.366;2022-12-05T00:24:31;3.80;99.90
17948;DHT22;9099;47.958;11.366;2022-12-05T00:26:58;3.80;99.90
17948;DHT22;9099;47.958;11.366;2022-12-05T00:29:25;3.80;99.90
17948;DHT22;9099;47.958;11.366;2022-12-05T00:31:52;3.80;99.90
17948;DHT22;9099;47.958;11.366;2022-12-05T00:34:19;3.80;99.90
17948;DHT22;9099;47.958;11.366;2022-12-05T00:36:47;3.80;99.90
17948;DHT22;9099;47.958;11.366;2022-12-05T00:39:14;3.70;99.90
17948;DHT22;9099;47.958;11.366;2022-12-05T00:41:41;3.70;99.90
17948;DHT22;9099;47.958;11.366;2022-12-05T00:44:10;3.80;99.90
17948;DHT22;9099;47.958;11.366;2022-12-05T00:46:37;3.80;99.90
17948;DHT22;9099;47.958;11.366;2022-12-05T00:49:05;3.80;99.90
17948;DHT22;9099;47.958;11.366;2022-12-05T00:51:35;3.80;99.90
17948;DHT22;9099;47.958;11.366;2022-12-05T00:54:04;3.90;99.90
17948;DHT22;9099;47.958;11.366;2022-12-05T00:56:32;3.90;99.90
17948;DHT22;9099;47.958;11.366;2022-12-05T00:59:00;3.80;99.90
17948;DHT22;9099;47.958;11.366;2022-12-05T01:01:29;3.80;99.90
17948;DHT22;9099;47.958;11.366;2022-12-05T01:03:58;3.80;99.90
17948;DHT22;9099;47.958;11.366;2022-12-05T01:06:26;3.80;99.90
17948;DHT22;9099;47.958;11.366;2022-12-05T01:08:54;3.90;99.90
17948;DHT22;9099;47.958;11.366;2022-12-05T01:11:24;3.80;99.90
17948;DHT22;9099;47.958;11.366;2022-12-05T01:13:52;3.80;99.90
17948;DHT22;9099;47.958;11.366;2022-12-05T01:16:21;3.80;99.90
17948;DHT22;9099;47.958;11.366;2022-12-05T01:18:48;3.70;99.90
17948;DHT22;9099;47.958;11.366;2022-12-05T01:21:16;3.60;99.90
17948;DHT22;9099;47.958;11.366;2022-12-05T01:23:43;3.70;99.90
17948;DHT22;9099;47.958;11.366;2022-12-05T01:26:16;3.60;99.90
17948;DHT22;9099;47.958;11.366;2022-12-05T01:28:45;3.60;99.90
17948;DHT22;9099;47.958;11.366;2022-12-05T01:31:17;3.70;99.90
17948;DHT22;9099;47.958;11.366;2022-12-05T01:33:44;3.60;99.90
17948;DHT22;9099;47.958;11.366;2022-12-05T01:36:11;3.70;99.90
17948;DHT22;9099;47.958;11.366;2022-12-05T01:38:38;3.70;99.90
17948;DHT22;9099;47.958;11.366;2022-12-05T01:41:07;3.70;99.90
17948;DHT22;9099;47.958;11.366;2022-12-05T01:43:55;3.70;99.90
17948;DHT22;9099;47.958;11.366;2022-12-05T01:46:22;3.70;99.90
17948;DHT22;9099;47.958;11.366;2022-12-05T01:48:50;3.70;99.90
17948;DHT22;9099;47.958;11.366;2022-12-05T01:51:17;3.70;99.90
17948;DHT22;9099;47.958;11.366;2022-12-05T01:53:44;3.60;99.90
17948;DHT22;9099;47.958;11.366;2022-12-05T01:56:12;3.60;99.90
17948;DHT22;9099;47.958;11.366;2022-12-05T01:58:40;3.50;99.90
17948;DHT22;9099;47.958;11.366;2022-12-05T02:01:10;3.50;99.90
17948;DHT22;9099;47.958;11.366;2022-12-05T02:03:38;3.50;99.90
17948;DHT22;9099;47.958;11.366;2022-12-05T02:06:06;3.40;99.90
17948;DHT22;9099;47.958;11.366;2022-12-05T02:08:33;3.40;99.90
17948;DHT22;9099;47.958;11.366;2022-12-05T02:11:00;3.40;99.90
17948;DHT22;9099;47.958;11.366;2022-12-05T02:13:37;3.40;99.90
17948;DHT22;9099;47.958;11.366;2022-12-05T02:16:10;3.40;99.90
17948;DHT22;9099;47.958;11.366;2022-12-05T02:18:48;3.30;99.90
17948;DHT22;9099;47.958;11.366;2022-12-05T02:24:59;3.30;99.90
17948;DHT22;9099;47.958;11.366;2022-12-05T02:30:24;3.30;99.90
17948;DHT22;9099;47.958;11.366;2022-12-05T02:33:02;3.40;99.90
17948;DHT22;9099;47.958;11.366;2022-12-05T02:35:39;3.30;99.90
17948;DHT22;9099;47.958;11.366;2022-12-05T02:38:16;3.30;99.90
17948;DHT22;9099;47.958;11.366;2022-12-05T02:40:49;3.30;99.90
17948;DHT22;9099;47.958;11.366;2022-12-05T02:43:22;3.30;99.90
17948;DHT22;9099;47.958;11.366;2022-12-05T02:45:54;3.30;99.90
17948;DHT22;9099;47.958;11.366;2022-12-05T02:48:22;3.30;99.90
17948;DHT22;9099;47.958;11.366;2022-12-05T02:50:52;3.40;99.90
17948;DHT22;9099;47.958;11.366;2022-12-05T02:53:21;3.30;99.90
17948;DHT22;9099;47.958;11.366;2022-12-05T02:55:49;3.20;99.90
17948;DHT22;9099;47.958;11.366;2022-12-05T02:58:22;3.20;99.90
17948;DHT22;9099;47.958;11.366;2022-12-05T03:00:55;3.20;99.90
17948;DHT22;9099;47.958;11.366;2022-12-05T03:03:23;3.20;99.90
17948;DHT22;9099;47.958;11.366;2022-12-05T03:05:56;3.20;99.90
17948;DHT22;9099;47.958;11.366;2022-12-05T03:08:27;3.20;99.90
17948;DHT22;9099;47.958;11.366;2022-12-05T03:10:55;3.30;99.90
17948;DHT22;9099;47.958;11.366;2022-12-05T03:13:26;3.30;99.90
17948;DHT22;9099;47.958;11.366;2022-12-05T03:15:58;3.20;99.90
17948;DHT22;9099;47.958;11.366;2022-12-05T03:18:28;3.20;99.90
17948;DHT22;9099;47.958;11.366;2022-12-05T03:20:59;3.20;99.90
17948;DHT22;9099;47.958;11.366;2022-12-05T03:23:31;3.10;99.90
17948;DHT22;9099;47.958;11.366;2022-12-05T03:26:04;3.20;99.90
17948;DHT22;9099;47.958;11.366;2022-12-05T03:28:46;3.00;99.90
17948;DHT22;9099;47.958;11.366;2022-12-05T03:31:21;3.00;99.90
17948;DHT22;9099;47.958;11.366;2022-12-05T03:33:54;3.00;99.90
17948;DHT22;9099;47.958;11.366;2022-12-05T03:36:28;3.00;99.90
17948;DHT22;9099;47.958;11.366;2022-12-05T03:39:02;3.00;99.90
17948;DHT22;9099;47.958;11.366;2022-12-05T03:41:35;3.20;99.90
17948;DHT22;9099;47.958;11.366;2022-12-05T03:44:07;3.20;99.90
17948;DHT22;9099;47.958;11.366;2022-12-05T03:46:40;3.10;99.90
17948;DHT22;9099;47.958;11.366;2022-12-05T03:49:11;3.10;99.90
17948;DHT22;9099;47.958;11.366;2022-12-05T03:51:44;3.20;99.90
17948;DHT22;9099;47.958;11.366;2022-12-05T03:54:16;3.20;99.90
17948;DHT22;9099;47.958;11.366;2022-12-05T03:56:49;3.20;99.90
17948;DHT22;9099;47.958;11.366;2022-12-05T03:59:23;3.10;99.90
17948;DHT22;9099;47.958;11.366;2022-12-05T04:01:55;3.10;99.90
17948;DHT22;9099;47.958;11.366;2022-12-05T04:04:27;3.20;99.90
17948;DHT22;9099;47.958;11.366;2022-12-05T04:06:55;3.20;99.90
17948;DHT22;9099;47.958;11.366;2022-12-05T04:09:26;3.20;99.90
17948;DHT22;9099;47.958;11.366;2022-12-05T04:11:58;3.20;99.90
17948;DHT22;9099;47.958;11.366;2022-12-05T04:14:30;3.30;99.90
17948;DHT22;9099;47.958;11.366;2022-12-05T04:17:03;3.30;99.90
17948;DHT22;9099;47.958;11.366;2022-12-05T04:19:35;3.30;99.90
17948;DHT22;9099;47.958;11.366;2022-12-05T04:22:23;3.20;99.90
17948;DHT22;9099;47.958;11.366;2022-12-05T04:24:52;3.30;99.90
17948;DHT22;9099;47.958;11.366;2022-12-05T04:27:56;3.40;99.90
17948;DHT22;9099;47.958;11.366;2022-12-05T04:30:27;3.30;99.90
17948;DHT22;9099;47.958;11.366;2022-12-05T04:33:02;3.30;99.90
17948;DHT22;9099;47.958;11.366;2022-12-05T04:35:34;3.30;99.90
17948;DHT22;9099;47.958;11.366;2022-12-05T04:38:06;3.30;99.90
17948;DHT22;9099;47.958;11.366;2022-12-05T04:40:37;3.30;99.90
17948;DHT22;9099;47.958;11.366;2022-12-05T04:43:06;3.40;99.90
17948;DHT22;9099;47.958;11.366;2022-12-05T04:45:34;3.50;99.90
17948;DHT22;9099;47.958;11.366;2022-12-05T04:48:10;3.50;99.90
17948;DHT22;9099;47.958;11.366;2022-12-05T04:50:39;3.50;99.90
17948;DHT22;9099;47.958;11.366;2022-12-05T04:53:08;3.50;99.90
17948;DHT22;9099;47.958;11.366;2022-12-05T04:55:39;3.50;99.90
17948;DHT22;9099;47.958;11.366;2022-12-05T04:58:09;3.50;99.90
17948;DHT22;9099;47.958;11.366;2022-12-05T05:00:43;3.60;99.90
17948;DHT22;9099;47.958;11.366;2022-12-05T05:03:16;3.60;99.90
17948;DHT22;9099;47.958;11.366;2022-12-05T05:05:46;3.70;99.90
17948;DHT22;9099;47.958;11.366;2022-12-05T05:08:20;3.70;99.90
17948;DHT22;9099;47.958;11.366;2022-12-05T05:10:55;3.70;99.90
17948;DHT22;9099;47.958;11.366;2022-12-05T05:13:23;3.60;99.90
17948;DHT22;9099;47.958;11.366;2022-12-05T05:15:50;3.60;99.90
17948;DHT22;9099;47.958;11.366;2022-12-05T05:18:18;3.60;99.90
17948;DHT22;9099;47.958;11.366;2022-12-05T05:20:45;3.80;99.90
17948;DHT22;9099;47.958;11.366;2022-12-05T05:23:11;3.80;99.90
17948;DHT22;9099;47.958;11.366;2022-12-05T05:25:39;3.90;99.90
17948;DHT22;9099;47.958;11.366;2022-12-05T05:28:05;3.90;99.90
17948;DHT22;9099;47.958;11.366;2022-12-05T05:30:32;3.90;99.90
17948;DHT22;9099;47.958;11.366;2022-12-05T05:32:59;3.90;99.90
17948;DHT22;9099;47.958;11.366;2022-12-05T05:35:27;3.90;99.90
17948;DHT22;9099;47.958;11.366;2022-12-05T05:37:54;3.90;99.90
17948;DHT22;9099;47.958;11.366;2022-12-05T05:40:21;3.90;99.90
17948;DHT22;9099;47.958;11.366;2022-12-05T05:42:48;4.00;99.90
17948;DHT22;9099;47.958;11.366;2022-12-05T05:45:16;4.10;99.90
17948;DHT22;9099;47.958;11.366;2022-12-05T05:47:43;4.00;99.90
17948;DHT22;9099;47.958;11.366;2022-12-05T05:50:11;4.00;99.90
17948;DHT22;9099;47.958;11.366;2022-12-05T05:52:40;4.00;99.90
17948;DHT22;9099;47.958;11.366;2022-12-05T05:55:08;4.10;99.90
17948;DHT22;9099;47.958;11.366;2022-12-05T05:57:35;4.10;99.90
17948;DHT22;9099;47.958;11.366;2022-12-05T06:00:04;4.00;99.90
17948;DHT22;9099;47.958;11.366;2022-12-05T06:02:32;4.10;99.90
17948;DHT22;9099;47.958;11.366;2022-12-05T06:04:59;4.10;99.90
17948;DHT22;9099;47.958;11.366;2022-12-05T06:07:26;4.10;99.90
17948;DHT22;9099;47.958;11.366;2022-12-05T06:09:55;4.10;99.90
17948;DHT22;9099;47.958;11.366;2022-12-05T06:12:22;4.10;99.90
17948;DHT22;9099;47.958;11.366;2022-12-05T06:14:49;4.10;99.90
17948;DHT22;9099;47.958;11.366;2022-12-05T06:17:16;4.10;99.90
17948;DHT22;9099;47.958;11.366;2022-12-05T06:19:43;4.10;99.90
17948;DHT22;9099;47.958;11.366;2022-12-05T06:22:10;4.00;99.90
17948;DHT22;9099;47.958;11.366;2022-12-05T06:24:37;4.00;99.90
17948;DHT22;9099;47.958;11.366;2022-12-05T06:27:05;4.00;99.90
17948;DHT22;9099;47.958;11.366;2022-12-05T06:29:33;4.00;99.90
17948;DHT22;9099;47.958;11.366;2022-12-05T06:32:00;4.00;99.90
17948;DHT22;9099;47.958;11.366;2022-12-05T06:34:27;4.00;99.90
17948;DHT22;9099;47.958;11.366;2022-12-05T06:36:54;4.00;99.90
17948;DHT22;9099;47.958;11.366;2022-12-05T06:39:21;4.00;99.90
17948;DHT22;9099;47.958;11.366;2022-12-05T06:41:48;3.90;99.90
17948;DHT22;9099;47.958;11.366;2022-12-05T06:44:16;3.80;99.90
17948;DHT22;9099;47.958;11.366;2022-12-05T06:46:43;3.70;99.90
17948;DHT22;9099;47.958;11.366;2022-12-05T06:49:09;3.70;99.90
17948;DHT22;9099;47.958;11.366;2022-12-05T06:51:36;3.70;99.90
17948;DHT22;9099;47.958;11.366;2022-12-05T06:54:03;3.70;99.90
17948;DHT22;9099;47.958;11.366;2022-12-05T06:56:30;3.80;99.90
17948;DHT22;9099;47.958;11.366;2022-12-05T06:58:57;3.80;99.90
17948;DHT22;9099;47.958;11.366;2022-12-05T07:01:25;3.80;99.90
17948;DHT22;9099;47.958;11.366;2022-12-05T07:04:04;3.90;99.90
17948;DHT22;9099;47.958;11.366;2022-12-05T07:06:32;3.80;99.90
17948;DHT22;9099;47.958;11.366;2022-12-05T07:08:59;3.80;99.90
17948;DHT22;9099;47.958;11.366;2022-12-05T07:11:26;3.90;99.90
17948;DHT22;9099;47.958;11.366;2022-12-05T07:13:53;3.90;99.90
17948;DHT22;9099;47.958;11.366;2022-12-05T07:16:19;4.00;99.90
17948;DHT22;9099;47.958;11.366;2022-12-05T07:18:48;4.10;99.90
17948;DHT22;9099;47.958;11.366;2022-12-05T07:21:15;4.10;99.90
17948;DHT22;9099;47.958;11.366;2022-12-05T07:23:44;4.10;99.90
17948;DHT22;9099;47.958;11.366;2022-12-05T07:26:13;4.20;99.90
17948;DHT22;9099;47.958;11.366;2022-12-05T07:28:41;4.20;99.90
17948;DHT22;9099;47.958;11.366;2022-12-05T07:31:09;4.20;99.90
17948;DHT22;9099;47.958;11.366;2022-12-05T07:33:36;4.20;99.90
17948;DHT22;9099;47.958;11.366;2022-12-05T07:36:07;4.20;99.90
17948;DHT22;9099;47.958;11.366;2022-12-05T07:38:34;4.10;99.90
17948;DHT22;9099;47.958;11.366;2022-12-05T07:41:04;4.10;99.90
17948;DHT22;9099;47.958;11.366;2022-12-05T07:43:31;4.10;99.90
17948;DHT22;9099;47.958;11.366;2022-12-05T07:46:01;4.00;99.90
17948;DHT22;9099;47.958;11.366;2022-12-05T07:48:28;4.00;99.90
17948;DHT22;9099;47.958;11.366;2022-12-05T07:50:58;4.00;99.90
17948;DHT22;9099;47.958;11.366;2022-12-05T07:53:27;4.10;99.90
17948;DHT22;9099;47.958;11.366;2022-12-05T07:55:54;4.10;99.90
17948;DHT22;9099;47.958;11.366;2022-12-05T07:58:23;4.10;99.90
17948;DHT22;9099;47.958;11.366;2022-12-05T08:00:50;4.20;99.90
17948;DHT22;9099;47.958;11.366;2022-12-05T08:03:17;4.20;99.90
17948;DHT22;9099;47.958;11.366;2022-12-05T08:05:44;4.30;99.90
17948;DHT22;9099;47.958;11.366;2022-12-05T08:08:11;4.40;99.90
17948;DHT22;9099;47.958;11.366;2022-12-05T08:10:39;4.40;99.90
17948;DHT22;9099;47.958;11.366;2022-12-05T08:13:06;4.50;99.90
17948;DHT22;9099;47.958;11.366;2022-12-05T08:15:33;4.50;99.90
17948;DHT22;9099;47.958;11.366;2022-12-05T08:18:01;4.50;99.90
17948;DHT22;9099;47.958;11.366;2022-12-05T08:20:27;4.50;99.90
17948;DHT22;9099;47.958;11.366;2022-12-05T08:22:55;4.60;99.90
17948;DHT22;9099;47.958;11.366;2022-12-05T08:25:21;4.70;99.90
17948;DHT22;9099;47.958;11.366;2022-12-05T08:27:50;4.70;99.90
17948;DHT22;9099;47.958;11.366;2022-12-05T08:30:17;4.70;99.90
17948;DHT22;9099;47.958;11.366;2022-12-05T08:32:44;4.70;99.90
17948;DHT22;9099;47.958;11.366;2022-12-05T08:35:11;4.70;99.90
17948;DHT22;9099;47.958;11.366;2022-12-05T08:37:38;4.80;99.90
17948;DHT22;9099;47.958;11.366;2022-12-05T08:40:05;4.80;99.90
17948;DHT22;9099;47.958;11.366;2022-12-05T08:42:32;4.90;99.90
17948;DHT22;9099;47.958;11.366;2022-12-05T08:45:00;4.80;99.90
17948;DHT22;9099;47.958;11.366;2022-12-05T08:47:28;4.70;99.90
17948;DHT22;9099;47.958;11.366;2022-12-05T08:49:54;4.60;99.90
17948;DHT22;9099;47.958;11.366;2022-12-05T08:52:21;4.50;99.90
17948;DHT22;9099;47.958;11.366;2022-12-05T08:54:48;4.50;99.90
17948;DHT22;9099;47.958;11.366;2022-12-05T08:57:15;4.50;99.90
17948;DHT22;9099;47.958;11.366;2022-12-05T08:59:42;4.50;99.90
17948;DHT22;9099;47.958;11.366;2022-12-05T09:02:10;4.50;99.90
17948;DHT22;9099;47.958;11.366;2022-12-05T09:04:37;4.50;99.90
17948;DHT22;9099;47.958;11.366;2022-12-05T09:07:04;4.50;99.90
17948;DHT22;9099;47.958;11.366;2022-12-05T09:09:33;4.50;99.90
17948;DHT22;9099;47.958;11.366;2022-12-05T09:11:59;4.50;99.90
17948;DHT22;9099;47.958;11.366;2022-12-05T09:14:26;4.60;99.90
17948;DHT22;9099;47.958;11.366;2022-12-05T09:16:58;4.60;99.90
17948;DHT22;9099;47.958;11.366;2022-12-05T09:19:26;4.70;99.90
17948;DHT22;9099;47.958;11.366;2022-12-05T09:21:54;4.70;99.90
17948;DHT22;9099;47.958;11.366;2022-12-05T09:24:21;4.70;99.90
17948;DHT22;9099;47.958;11.366;2022-12-05T09:26:48;4.70;99.90
17948;DHT22;9099;47.958;11.366;2022-12-05T09:29:16;4.80;99.90
17948;DHT22;9099;47.958;11.366;2022-12-05T09:31:44;4.80;99.90
17948;DHT22;9099;47.958;11.366;2022-12-05T09:34:11;4.80;99.90
17948;DHT22;9099;47.958;11.366;2022-12-05T09:36:41;5.00;99.90
17948;DHT22;9099;47.958;11.366;2022-12-05T09:39:09;5.10;99.90
17948;DHT22;9099;47.958;11.366;2022-12-05T09:41:58;5.20;99.90
17948;DHT22;9099;47.958;11.366;2022-12-05T09:44:48;5.30;99.90
17948;DHT22;9099;47.958;11.366;2022-12-05T09:47:27;5.30;99.90
17948;DHT22;9099;47.958;11.366;2022-12-05T09:49:57;5.40;99.90
17948;DHT22;9099;47.958;11.366;2022-12-05T09:52:29;5.40;99.90
17948;DHT22;9099;47.958;11.366;2022-12-05T09:55:02;5.40;99.90
17948;DHT22;9099;47.958;11.366;2022-12-05T09:57:34;5.30;99.90
17948;DHT22;9099;47.958;11.366;2022-12-05T10:00:04;5.30;99.90
17948;DHT22;9099;47.958;11.366;2022-12-05T10:02:39;5.30;99.90
17948;DHT22;9099;47.958;11.366;2022-12-05T10:05:13;5.40;99.90
17948;DHT22;9099;47.958;11.366;2022-12-05T10:07:50;5.50;99.90
17948;DHT22;9099;47.958;11.366;2022-12-05T10:10:25;5.60;99.90
17948;DHT22;9099;47.958;11.366;2022-12-05T10:13:07;5.60;99.90
17948;DHT22;9099;47.958;11.366;2022-12-05T10:15:41;5.50;99.90
17948;DHT22;9099;47.958;11.366;2022-12-05T10:18:14;5.60;99.90
17948;DHT22;9099;47.958;11.366;2022-12-05T10:20:46;5.60;99.90
17948;DHT22;9099;47.958;11.366;2022-12-05T10:23:19;5.70;99.90
17948;DHT22;9099;47.958;11.366;2022-12-05T10:25:48;5.80;99.90
17948;DHT22;9099;47.958;11.366;2022-12-05T10:28:22;5.90;99.90
17948;DHT22;9099;47.958;11.366;2022-12-05T10:30:56;5.90;99.90
17948;DHT22;9099;47.958;11.366;2022-12-05T10:33:33;6.00;99.90
17948;DHT22;9099;47.958;11.366;2022-12-05T10:36:05;6.10;99.90
17948;DHT22;9099;47.958;11.366;2022-12-05T10:38:36;6.10;99.90
17948;DHT22;9099;47.958;11.366;2022-12-05T10:41:05;6.20;99.90
17948;DHT22;9099;47.958;11.366;2022-12-05T10:43:34;6.30;99.90
17948;DHT22;9099;47.958;11.366;2022-12-05T10:46:03;6.40;99.90
17948;DHT22;9099;47.958;11.366;2022-12-05T10:48:34;6.50;99.90
17948;DHT22;9099;47.958;11.366;2022-12-05T10:51:01;6.60;99.90
17948;DHT22;9099;47.958;11.366;2022-12-05T10:53:38;6.70;99.90
17948;DHT22;9099;47.958;11.366;2022-12-05T10:56:40;6.70;99.90
17948;DHT22;9099;47.958;11.366;2022-12-05T10:59:09;6.70;99.90
17948;DHT22;9099;47.958;11.366;2022-12-05T11:01:38;6.80;99.90
17948;DHT22;9099;47.958;11.366;2022-12-05T11:04:19;6.90;99.90
17948;DHT22;9099;47.958;11.366;2022-12-05T11:06:51;6.90;99.90
17948;DHT22;9099;47.958;11.366;2022-12-05T11:09:22;7.00;99.90
17948;DHT22;9099;47.958;11.366;2022-12-05T11:12:17;7.00;99.90
17948;DHT22;9099;47.958;11.366;2022-12-05T11:15:03;7.10;99.90
17948;DHT22;9099;47.958;11.366;2022-12-05T11:17:32;6.90;99.90
17948;DHT22;9099;47.958;11.366;2022-12-05T11:20:00;6.80;99.90
17948;DHT22;9099;47.958;11.366;2022-12-05T11:22:32;6.70;99.90
17948;DHT22;9099;47.958;11.366;2022-12-05T11:25:00;6.70;99.90
17948;DHT22;9099;47.958;11.366;2022-12-05T11:27:47;6.70;99.90
17948;DHT22;9099;47.958;11.366;2022-12-05T11:30:23;6.80;99.90
17948;DHT22;9099;47.958;11.366;2022-12-05T11:33:10;6.80;99.90
17948;DHT22;9099;47.958;11.366;2022-12-05T11:35:38;6.80;99.90
17948;DHT22;9099;47.958;11.366;2022-12-05T11:38:05;6.70;99.90
17948;DHT22;9099;47.958;11.366;2022-12-05T11:40:38;6.70;99.90
17948;DHT22;9099;47.958;11.366;2022-12-05T11:43:24;6.80;99.90
17948;DHT22;9099;47.958;11.366;2022-12-05T11:46:02;6.60;99.90
17948;DHT22;9099;47.958;11.366;2022-12-05T11:48:51;6.60;99.90
17948;DHT22;9099;47.958;11.366;2022-12-05T11:51:35;6.60;99.90
17948;DHT22;9099;47.958;11.366;2022-12-05T11:54:39;6.50;99.90
17948;DHT22;9099;47.958;11.366;2022-12-05T11:57:20;6.50;99.90
17948;DHT22;9099;47.958;11.366;2022-12-05T12:00:11;6.40;99.90
17948;DHT22;9099;47.958;11.366;2022-12-05T12:03:00;6.40;99.90
17948;DHT22;9099;47.958;11.366;2022-12-05T12:05:36;6.40;99.90
17948;DHT22;9099;47.958;11.366;2022-12-05T12:08:14;6.30;99.90
17948;DHT22;9099;47.958;11.366;2022-12-05T12:10:49;6.30;99.90
17948;DHT22;9099;47.958;11.366;2022-12-05T12:13:29;6.20;99.90
17948;DHT22;9099;47.958;11.366;2022-12-05T12:16:07;6.20;99.90
17948;DHT22;9099;47.958;11.366;2022-12-05T12:18:58;6.20;99.90
17948;DHT22;9099;47.958;11.366;2022-12-05T12:21:36;6.20;99.90
17948;DHT22;9099;47.958;11.366;2022-12-05T12:24:10;6.20;99.90
17948;DHT22;9099;47.958;11.366;2022-12-05T12:26:50;6.10;99.90
17948;DHT22;9099;47.958;11.366;2022-12-05T12:29:32;6.20;99.90
17948;DHT22;9099;47.958;11.366;2022-12-05T12:32:10;6.20;99.90
17948;DHT22;9099;47.958;11.366;2022-12-05T12:34:49;6.30;99.90
17948;DHT22;9099;47.958;11.366;2022-12-05T12:37:23;6.40;99.90
17948;DHT22;9099;47.958;11.366;2022-12-05T12:39:58;6.40;99.90
17948;DHT22;9099;47.958;11.366;2022-12-05T12:42:33;6.40;99.90
17948;DHT22;9099;47.958;11.366;2022-12-05T12:45:21;6.30;99.90
17948;DHT22;9099;47.958;11.366;2022-12-05T12:48:03;6.20;99.90
17948;DHT22;9099;47.958;11.366;2022-12-05T12:50:34;6.30;99.90
17948;DHT22;9099;47.958;11.366;2022-12-05T12:53:24;6.30;99.90
17948;DHT22;9099;47.958;11.366;2022-12-05T12:55:59;6.20;99.90
17948;DHT22;9099;47.958;11.366;2022-12-05T12:58:41;6.30;99.90
17948;DHT22;9099;47.958;11.366;2022-12-05T13:01:16;6.30;99.90
17948;DHT22;9099;47.958;11.366;2022-12-05T13:03:49;6.40;99.90
17948;DHT22;9099;47.958;11.366;2022-12-05T13:06:23;6.40;99.90
17948;DHT22;9099;47.958;11.366;2022-12-05T13:08:55;6.30;99.90
17948;DHT22;9099;47.958;11.366;2022-12-05T13:11:24;6.20;99.90
17948;DHT22;9099;47.958;11.366;2022-12-05T13:13:55;6.20;99.90
17948;DHT22;9099;47.958;11.366;2022-12-05T13:16:28;6.20;99.90
17948;DHT22;9099;47.958;11.366;2022-12-05T13:18:56;6.20;99.90
17948;DHT22;9099;47.958;11.366;2022-12-05T13:21:25;6.10;99.90
17948;DHT22;9099;47.958;11.366;2022-12-05T13:23:54;6.10;99.90
17948;DHT22;9099;47.958;11.366;2022-12-05T13:26:23;6.10;99.90
17948;DHT22;9099;47.958;11.366;2022-12-05T13:28:53;6.10;99.90
17948;DHT22;9099;47.958;11.366;2022-12-05T13:31:35;6.10;99.90
17948;DHT22;9099;47.958;11.366;2022-12-05T13:34:03;6.20;99.90
17948;DHT22;9099;47.958;11.366;2022-12-05T13:36:38;6.10;99.90
17948;DHT22;9099;47.958;11.366;2022-12-05T13:39:23;6.10;99.90
17948;DHT22;9099;47.958;11.366;2022-12-05T13:42:19;6.10;99.90
17948;DHT22;9099;47.958;11.366;2022-12-05T13:44:48;6.00;99.90
17948;DHT22;9099;47.958;11.366;2022-12-05T13:47:26;5.90;99.90
17948;DHT22;9099;47.958;11.366;2022-12-05T13:49:56;5.90;99.90
17948;DHT22;9099;47.958;11.366;2022-12-05T13:52:29;5.90;99.90
17948;DHT22;9099;47.958;11.366;2022-12-05T13:54:59;5.90;99.90
17948;DHT22;9099;47.958;11.366;2022-12-05T13:57:48;5.90;99.90
17948;DHT22;9099;47.958;11.366;2022-12-05T14:00:31;6.00;99.90
17948;DHT22;9099;47.958;11.366;2022-12-05T14:03:04;6.00;99.90
17948;DHT22;9099;47.958;11.366;2022-12-05T14:05:55;6.00;99.90
17948;DHT22;9099;47.958;11.366;2022-12-05T14:08:50;5.90;99.90
17948;DHT22;9099;47.958;11.366;2022-12-05T14:11:18;5.90;99.90
17948;DHT22;9099;47.958;11.366;2022-12-05T14:13:45;5.90;99.90
17948;DHT22;9099;47.958;11.366;2022-12-05T14:16:45;5.80;99.90
17948;DHT22;9099;47.958;11.366;2022-12-05T14:19:57;5.70;99.90
17948;DHT22;9099;47.958;11.366;2022-12-05T14:22:47;5.60;99.90
17948;DHT22;9099;47.958;11.366;2022-12-05T14:25:41;5.70;99.90
17948;DHT22;9099;47.958;11.366;2022-12-05T14:28:25;5.70;99.90
17948;DHT22;9099;47.958;11.366;2022-12-05T14:31:04;5.70;99.90
17948;DHT22;9099;47.958;11.366;2022-12-05T14:33:37;5.70;99.90
17948;DHT22;9099;47.958;11.366;2022-12-05T14:36:06;5.70;99.90
17948;DHT22;9099;47.958;11.366;2022-12-05T14:38:36;5.60;99.90
17948;DHT22;9099;47.958;11.366;2022-12-05T14:41:14;5.50;99.90
17948;DHT22;9099;47.958;11.366;2022-12-05T14:43:42;5.50;99.90
17948;DHT22;9099;47.958;11.366;2022-12-05T14:46:17;5.60;99.90
17948;DHT22;9099;47.958;11.366;2022-12-05T14:48:48;5.50;99.90
17948;DHT22;9099;47.958;11.366;2022-12-05T14:51:53;5.50;99.90
17948;DHT22;9099;47.958;11.366;2022-12-05T14:54:22;5.40;99.90
17948;DHT22;9099;47.958;11.366;2022-12-05T14:56:52;5.50;99.90
17948;DHT22;9099;47.958;11.366;2022-12-05T14:59:25;5.50;99.90
17948;DHT22;9099;47.958;11.366;2022-12-05T15:01:54;5.40;99.90
17948;DHT22;9099;47.958;11.366;2022-12-05T15:04:32;5.40;99.90
17948;DHT22;9099;47.958;11.366;2022-12-05T15:07:07;5.30;99.90
17948;DHT22;9099;47.958;11.366;2022-12-05T15:09:43;5.30;99.90
17948;DHT22;9099;47.958;11.366;2022-12-05T15:12:15;5.30;99.90
17948;DHT22;9099;47.958;11.366;2022-12-05T15:14:48;5.30;99.90
17948;DHT22;9099;47.958;11.366;2022-12-05T15:17:23;5.30;99.90
17948;DHT22;9099;47.958;11.366;2022-12-05T15:19:54;5.30;99.90
17948;DHT22;9099;47.958;11.366;2022-12-05T15:22:25;5.40;99.90
17948;DHT22;9099;47.958;11.366;2022-12-05T15:24:53;5.40;99.90
17948;DHT22;9099;47.958;11.366;2022-12-05T15:27:20;5.40;99.90
17948;DHT22;9099;47.958;11.366;2022-12-05T15:29:47;5.50;99.90
17948;DHT22;9099;47.958;11.366;2022-12-05T15:32:22;5.30;99.90
17948;DHT22;9099;47.958;11.366;2022-12-05T15:34:54;5.30;99.90
17948;DHT22;9099;47.958;11.366;2022-12-05T15:37:26;5.30;99.90
17948;DHT22;9099;47.958;11.366;2022-12-05T15:39:56;5.30;99.90
17948;DHT22;9099;47.958;11.366;2022-12-05T15:42:25;5.30;99.90
17948;DHT22;9099;47.958;11.366;2022-12-05T15:45:10;5.30;99.90
17948;DHT22;9099;47.958;11.366;2022-12-05T15:47:38;5.40;99.90
17948;DHT22;9099;47.958;11.366;2022-12-05T15:50:06;5.40;99.90
17948;DHT22;9099;47.958;11.366;2022-12-05T15:52:41;5.40;99.90
17948;DHT22;9099;47.958;11.366;2022-12-05T15:55:13;5.40;99.90
17948;DHT22;9099;47.958;11.366;2022-12-05T15:57:45;5.30;99.90
17948;DHT22;9099;47.958;11.366;2022-12-05T16:00:15;5.10;99.90
17948;DHT22;9099;47.958;11.366;2022-12-05T16:02:45;5.00;99.90
17948;DHT22;9099;47.958;11.366;2022-12-05T16:05:19;5.00;99.90
17948;DHT22;9099;47.958;11.366;2022-12-05T16:07:48;5.00;99.90
17948;DHT22;9099;47.958;11.366;2022-12-05T16:10:17;5.00;99.90
17948;DHT22;9099;47.958;11.366;2022-12-05T16:12:46;5.10;99.90
17948;DHT22;9099;47.958;11.366;2022-12-05T16:15:16;5.00;99.90
17948;DHT22;9099;47.958;11.366;2022-12-05T16:17:51;5.00;99.90
17948;DHT22;9099;47.958;11.366;2022-12-05T16:20:26;5.00;99.90